Wetterdaten: Woche 05.12.05 - 11.12.05 (KW49)
Datum Zeit Temperatur Luftfeuchte Luftdruck Niederschlag Wind Richtung Sonne Solar Taupunkt Windchill
05.12.2005 00:00 6.9 C 70 % 1001.4 hPa 0.0 l/m 5.7 km/h (1 Bft) SO 0.00 h 0 W/m 1.7 C 5.9 C
05.12.2005 01:00 6.8 C 71 % 1001.0 hPa 0.0 l/m 7.5 km/h (2 Bft) S-SO 0.00 h 0 W/m 2.0 C 5.5 C
05.12.2005 02:00 6.9 C 71 % 1001.0 hPa 0.0 l/m 9.5 km/h (2 Bft) S 0.00 h 0 W/m 2.0 C 5.2 C
05.12.2005 03:00 7.3 C 67 % 1000.9 hPa 0.0 l/m 14.0 km/h (3 Bft) S-SW 0.00 h 0 W/m 1.6 C 4.9 C
05.12.2005 04:00 6.1 C 77 % 1001.1 hPa 0.3 l/m 1.8 km/h (1 Bft) W-NW 0.00 h 0 W/m 2.5 C 5.8 C
05.12.2005 05:00 5.7 C 85 % 1001.2 hPa 0.3 l/m 3.8 km/h (1 Bft) SO 0.00 h 0 W/m 3.3 C 5.0 C
05.12.2005 06:00 5.5 C 88 % 1002.2 hPa 0.0 l/m 1.0 km/h (0 Bft) W 0.00 h 0 W/m 3.6 C 5.4 C
05.12.2005 07:00 5.2 C 89 % 1002.2 hPa 0.0 l/m 0.6 km/h (0 Bft) W 0.00 h 0 W/m 3.5 C 5.0 C
05.12.2005 08:00 5.2 C 89 % 1002.6 hPa 0.3 l/m 1.1 km/h (1 Bft) SO 0.00 h 18 W/m 3.5 C 5.0 C
05.12.2005 09:00 5.8 C 85 % 1003.2 hPa 0.0 l/m 0.0 km/h (0 Bft) N 0.00 h 62 W/m 3.5 C 5.8 C
05.12.2005 10:00 6.6 C 78 % 1003.1 hPa 0.0 l/m 2.0 km/h (1 Bft) W-NW 0.00 h 84 W/m 3.0 C 6.3 C
05.12.2005 11:00 7.1 C 66 % 1003.0 hPa 0.0 l/m 4.7 km/h (1 Bft) W-NW 0.00 h 120 W/m 1.3 C 6.4 C
05.12.2005 12:00 7.5 C 62 % 1002.9 hPa 0.0 l/m 5.6 km/h (1 Bft) W-NW 0.00 h 125 W/m 0.8 C 6.6 C
05.12.2005 13:00 7.5 C 63 % 1001.9 hPa 0.0 l/m 5.9 km/h (2 Bft) NW 0.07 h 121 W/m 1.0 C 6.6 C
05.12.2005 14:00 7.2 C 64 % 1002.1 hPa 0.0 l/m 10.6 km/h (2 Bft) W-NW 0.12 h 117 W/m 0.8 C 5.3 C
05.12.2005 15:00 6.9 C 63 % 1003.0 hPa 0.0 l/m 4.1 km/h (1 Bft) W-NW 0.00 h 29 W/m 0.3 C 6.3 C
05.12.2005 16:00 6.4 C 69 % 1003.1 hPa 0.0 l/m 2.2 km/h (1 Bft) W-NW 0.00 h 7 W/m 1.0 C 6.1 C
05.12.2005 17:00 5.3 C 76 % 1003.6 hPa 0.0 l/m 0.1 km/h (0 Bft) N 0.00 h 0 W/m 1.5 C 5.3 C
05.12.2005 18:00 3.9 C 85 % 1004.5 hPa 0.0 l/m 1.8 km/h (1 Bft) SO 0.00 h 0 W/m 1.5 C 3.7 C
05.12.2005 19:00 3.8 C 88 % 1004.5 hPa 0.0 l/m 3.6 km/h (1 Bft) SO 0.00 h 0 W/m 2.0 C 3.1 C
05.12.2005 20:00 3.4 C 90 % 1005.1 hPa 0.0 l/m 2.3 km/h (1 Bft) SO 0.00 h 0 W/m 1.9 C 3.0 C
05.12.2005 21:00 3.7 C 87 % 1005.6 hPa 0.0 l/m 1.1 km/h (0 Bft) S-SO 0.00 h 0 W/m 1.7 C 3.7 C
05.12.2005 22:00 3.4 C 88 % 1005.6 hPa 0.0 l/m 1.8 km/h (1 Bft) SO 0.00 h 0 W/m 1.6 C 3.1 C
05.12.2005 23:00 3.2 C 90 % 1005.6 hPa 0.0 l/m 0.6 km/h (0 Bft) O-SO 0.00 h 0 W/m 1.7 C 3.2 C
06.12.2005 00:00 3.5 C 91 % 1005.7 hPa 0.3 l/m 0.4 km/h (0 Bft) SO 0.00 h 0 W/m 2.1 C 3.4 C
06.12.2005 01:00 3.3 C 90 % 1005.7 hPa 0.0 l/m 0.0 km/h (0 Bft) N 0.00 h 0 W/m 1.9 C 3.3 C
06.12.2005 02:00 2.7 C 92 % 1005.7 hPa 0.0 l/m 0.1 km/h (0 Bft) S-SO 0.00 h 0 W/m 1.5 C 2.7 C
06.12.2005 03:00 3.1 C 93 % 1005.7 hPa 0.0 l/m 2.7 km/h (1 Bft) SO 0.00 h 0 W/m 2.0 C 2.5 C
06.12.2005 04:00 3.0 C 93 % 1005.7 hPa 0.0 l/m 2.7 km/h (1 Bft) SO 0.00 h 0 W/m 2.0 C 2.4 C
06.12.2005 05:00 3.1 C 93 % 1005.7 hPa 0.3 l/m 1.5 km/h (1 Bft) W 0.00 h 0 W/m 2.1 C 2.8 C
06.12.2005 06:00 2.8 C 92 % 1005.7 hPa 0.0 l/m 2.4 km/h (1 Bft) O-SO 0.00 h 0 W/m 1.6 C 2.5 C
06.12.2005 07:00 2.0 C 93 % 1005.9 hPa 0.0 l/m 0.5 km/h (0 Bft) SO 0.00 h 0 W/m 1.0 C 2.0 C
06.12.2005 08:00 2.1 C 93 % 1006.8 hPa 0.0 l/m 1.4 km/h (1 Bft) O-SO 0.03 h 23 W/m 1.0 C 1.8 C
06.12.2005 09:00 3.0 C 92 % 1006.7 hPa 0.0 l/m 0.5 km/h (0 Bft) O-SO 0.00 h 87 W/m 1.9 C 3.0 C
06.12.2005 10:00 3.8 C 85 % 1006.6 hPa 0.0 l/m 1.1 km/h (0 Bft) SO 0.37 h 173 W/m 1.6 C 3.7 C
06.12.2005 11:00 4.2 C 82 % 1006.5 hPa 0.0 l/m 0.9 km/h (0 Bft) W 0.43 h 208 W/m 1.4 C 4.1 C
06.12.2005 12:00 4.8 C 78 % 1006.5 hPa 0.0 l/m 1.1 km/h (1 Bft) SO 0.45 h 246 W/m 1.2 C 4.6 C
06.12.2005 13:00 5.2 C 72 % 1006.4 hPa 0.0 l/m 0.8 km/h (0 Bft) O-SO 0.00 h 135 W/m 0.5 C 5.2 C
06.12.2005 14:00 5.3 C 71 % 1006.4 hPa 0.0 l/m 0.3 km/h (0 Bft) W 0.20 h 128 W/m 0.4 C 5.3 C
06.12.2005 15:00 5.9 C 67 % 1006.6 hPa 0.0 l/m 0.3 km/h (0 Bft) W 1.03 h 136 W/m 0.2 C 5.9 C
06.12.2005 16:00 3.9 C 74 % 1007.8 hPa 0.0 l/m 0.6 km/h (0 Bft) SO 0.07 h 20 W/m -0.4 C 3.8 C
06.12.2005 17:00 3.4 C 79 % 1008.7 hPa 0.0 l/m 2.4 km/h (1 Bft) SO 0.00 h 0 W/m 0.2 C 2.9 C
06.12.2005 18:00 3.1 C 79 % 1009.8 hPa 0.0 l/m 1.9 km/h (1 Bft) W-NW 0.00 h 0 W/m -0.2 C 2.8 C
06.12.2005 19:00 1.9 C 83 % 1010.3 hPa 0.0 l/m 1.6 km/h (1 Bft) NO 0.00 h 0 W/m -0.7 C 1.8 C
06.12.2005 20:00 0.4 C 87 % 1011.2 hPa 0.0 l/m 0.1 km/h (0 Bft) NO 0.00 h 0 W/m -1.5 C 0.4 C
06.12.2005 21:00 0.2 C 90 % 1012.0 hPa 0.0 l/m 1.4 km/h (1 Bft) NO 0.00 h 0 W/m -1.2 C -0.0 C
06.12.2005 22:00 0.2 C 92 % 1012.3 hPa 0.0 l/m 2.1 km/h (1 Bft) O 0.00 h 0 W/m -0.9 C -0.4 C
06.12.2005 23:00 0.5 C 93 % 1012.5 hPa 0.0 l/m 2.0 km/h (1 Bft) O 0.00 h 0 W/m -0.5 C 0.2 C
07.12.2005 00:00 1.0 C 93 % 1013.2 hPa 0.0 l/m 0.0 km/h (0 Bft) N 0.00 h 0 W/m 0.0 C 1.0 C
07.12.2005 01:00 1.3 C 93 % 1013.2 hPa 0.0 l/m 0.0 km/h (0 Bft) N 0.00 h 0 W/m 0.3 C 1.3 C
07.12.2005 02:00 1.4 C 93 % 1013.2 hPa 0.0 l/m 0.0 km/h (0 Bft) N 0.00 h 0 W/m 0.4 C 1.4 C
07.12.2005 03:00 1.5 C 93 % 1013.7 hPa 0.0 l/m 0.0 km/h (0 Bft) N 0.00 h 0 W/m 0.5 C 1.5 C
07.12.2005 04:00 2.0 C 92 % 1014.1 hPa 0.0 l/m 0.0 km/h (0 Bft) N 0.00 h 0 W/m 0.8 C 2.0 C
07.12.2005 05:00 1.9 C 92 % 1014.9 hPa 0.0 l/m 0.0 km/h (0 Bft) N 0.00 h 0 W/m 0.7 C 1.9 C
07.12.2005 06:00 1.7 C 95 % 1015.2 hPa 0.0 l/m 4.3 km/h (1 Bft) W 0.00 h 0 W/m 1.0 C 0.5 C
07.12.2005 07:00 2.4 C 93 % 1015.6 hPa 0.0 l/m 11.5 km/h (2 Bft) W 0.00 h 0 W/m 1.5 C -0.6 C
07.12.2005 08:00 2.5 C 84 % 1016.5 hPa 0.0 l/m 2.6 km/h (1 Bft) W-NW 0.00 h 12 W/m 0.0 C 1.9 C
07.12.2005 09:00 2.6 C 83 % 1017.4 hPa 0.0 l/m 2.3 km/h (1 Bft) W-NW 0.00 h 32 W/m 0.1 C 2.0 C
07.12.2005 10:00 3.0 C 78 % 1018.2 hPa 0.0 l/m 6.6 km/h (2 Bft) W-NW 0.00 h 38 W/m -0.4 C 1.4 C
07.12.2005 11:00 3.1 C 79 % 1018.1 hPa 0.0 l/m 0.6 km/h (0 Bft) W-NW 0.00 h 45 W/m -0.1 C 3.1 C
07.12.2005 12:00 3.9 C 74 % 1018.0 hPa 0.0 l/m 4.8 km/h (1 Bft) W-NW 0.13 h 146 W/m -0.3 C 2.8 C
07.12.2005 13:00 4.4 C 75 % 1018.0 hPa 0.0 l/m 2.3 km/h (1 Bft) W 0.00 h 94 W/m 0.3 C 4.1 C
07.12.2005 14:00 3.9 C 83 % 1018.7 hPa 0.0 l/m 1.4 km/h (1 Bft) W 0.00 h 36 W/m 1.2 C 3.7 C
07.12.2005 15:00 3.8 C 85 % 1019.1 hPa 0.0 l/m 0.4 km/h (0 Bft) W 0.00 h 9 W/m 1.4 C 3.7 C
07.12.2005 16:00 3.6 C 86 % 1019.9 hPa 0.0 l/m 0.4 km/h (0 Bft) W-SW 0.00 h 5 W/m 1.5 C 3.5 C
07.12.2005 17:00 3.7 C 85 % 1020.1 hPa 0.0 l/m 6.2 km/h (2 Bft) W-NW 0.00 h 0 W/m 1.4 C 2.3 C
07.12.2005 18:00 3.5 C 81 % 1020.6 hPa 0.0 l/m 2.5 km/h (1 Bft) W-NW 0.00 h 0 W/m 0.6 C 2.9 C
07.12.2005 19:00 3.2 C 81 % 1021.2 hPa 0.0 l/m 0.7 km/h (0 Bft) SO 0.00 h 0 W/m 0.2 C 3.2 C
07.12.2005 20:00 2.8 C 84 % 1021.3 hPa 0.0 l/m 0.9 km/h (0 Bft) SO 0.00 h 0 W/m 0.4 C 2.7 C
07.12.2005 21:00 1.9 C 87 % 1021.4 hPa 0.0 l/m 2.3 km/h (1 Bft) SO 0.00 h 0 W/m -0.0 C 1.6 C
07.12.2005 22:00 1.5 C 89 % 1021.5 hPa 0.0 l/m 1.4 km/h (1 Bft) SO 0.00 h 0 W/m -0.1 C 1.2 C
07.12.2005 23:00 1.7 C 90 % 1021.5 hPa 0.0 l/m 1.2 km/h (1 Bft) SO 0.00 h 0 W/m 0.3 C 1.5 C
08.12.2005 00:00 1.4 C 92 % 1021.1 hPa 0.0 l/m 0.4 km/h (0 Bft) O-SO 0.00 h 0 W/m 0.2 C 1.4 C
08.12.2005 01:00 0.7 C 92 % 1020.6 hPa 0.0 l/m 2.5 km/h (1 Bft) O-SO 0.00 h 0 W/m -0.5 C 0.1 C
08.12.2005 02:00 0.7 C 94 % 1020.6 hPa 0.0 l/m 2.5 km/h (1 Bft) O-SO 0.00 h 0 W/m -0.2 C 0.1 C
08.12.2005 03:00 0.7 C 94 % 1020.1 hPa 0.0 l/m 4.3 km/h (1 Bft) O-SO 0.00 h 0 W/m -0.2 C -0.2 C
08.12.2005 04:00 0.7 C 96 % 1019.1 hPa 0.0 l/m 1.8 km/h (1 Bft) O 0.00 h 0 W/m 0.1 C 0.3 C
08.12.2005 05:00 0.2 C 95 % 1018.6 hPa 0.0 l/m 0.0 km/h (0 Bft) N 0.00 h 0 W/m -0.5 C 0.2 C
08.12.2005 06:00 0.0 C 94 % 1017.6 hPa 0.0 l/m 0.0 km/h (0 Bft) N 0.00 h 0 W/m -0.8 C 0.0 C
08.12.2005 07:00 0.1 C 94 % 1017.5 hPa 0.0 l/m 0.0 km/h (0 Bft) N 0.00 h 0 W/m -0.7 C 0.1 C
08.12.2005 08:00 0.5 C 95 % 1017.5 hPa 0.0 l/m 0.0 km/h (0 Bft) N 0.00 h 10 W/m -0.1 C 0.5 C
08.12.2005 09:00 0.7 C 96 % 1017.4 hPa 0.0 l/m 0.0 km/h (0 Bft) N 0.00 h 21 W/m 0.1 C 0.7 C
08.12.2005 10:00 0.8 C 96 % 1017.4 hPa 1.0 l/m 0.0 km/h (0 Bft) N 0.00 h 23 W/m 0.2 C 0.8 C
08.12.2005 11:00 0.5 C 95 % 1017.5 hPa 1.3 l/m 1.3 km/h (1 Bft) O-SO 0.00 h 32 W/m -0.2 C 0.2 C
08.12.2005 12:00 0.5 C 94 % 1017.6 hPa 1.3 l/m 0.0 km/h (0 Bft) N 0.00 h 33 W/m -0.2 C 0.5 C
08.12.2005 13:00 0.9 C 95 % 1018.0 hPa 0.6 l/m 0.0 km/h (0 Bft) N 0.00 h 42 W/m 0.1 C 0.9 C
08.12.2005 14:00 1.2 C 94 % 1018.1 hPa 0.6 l/m 0.0 km/h (0 Bft) N 0.00 h 27 W/m 0.3 C 1.2 C
08.12.2005 15:00 1.3 C 94 % 1018.4 hPa 0.0 l/m 0.0 km/h (0 Bft) N 0.00 h 17 W/m 0.4 C 1.3 C
08.12.2005 16:00 1.6 C 94 % 1018.8 hPa 0.3 l/m 0.0 km/h (0 Bft) N 0.00 h 6 W/m 0.6 C 1.6 C
08.12.2005 17:00 1.4 C 94 % 1019.4 hPa 0.0 l/m 0.0 km/h (0 Bft) N 0.00 h 0 W/m 0.5 C 1.4 C
08.12.2005 18:00 1.2 C 95 % 1019.9 hPa 0.0 l/m 0.0 km/h (0 Bft) N 0.00 h 0 W/m 0.5 C 1.2 C
08.12.2005 19:00 1.3 C 96 % 1020.4 hPa 0.0 l/m 0.0 km/h (0 Bft) N 0.00 h 0 W/m 0.7 C 1.3 C
08.12.2005 20:00 1.2 C 96 % 1020.5 hPa 0.0 l/m 0.0 km/h (0 Bft) N 0.00 h 0 W/m 0.6 C 1.2 C
08.12.2005 21:00 1.2 C 96 % 1020.6 hPa 1.6 l/m 0.0 km/h (0 Bft) N 0.00 h 0 W/m 0.6 C 1.2 C
08.12.2005 22:00 0.8 C 96 % 1021.6 hPa 2.0 l/m 0.0 km/h (0 Bft) N 0.00 h 0 W/m 0.3 C 0.8 C
08.12.2005 23:00 0.5 C 97 % 1021.6 hPa 1.0 l/m 0.0 km/h (0 Bft) N 0.00 h 0 W/m 0.0 C 0.5 C
09.12.2005 00:00 0.5 C 97 % 1021.9 hPa 0.6 l/m 0.0 km/h (0 Bft) N 0.00 h 0 W/m 0.1 C 0.5 C
09.12.2005 01:00 0.4 C 97 % 1022.7 hPa 1.6 l/m 0.0 km/h (0 Bft) N 0.00 h 0 W/m -0.0 C 0.4 C
09.12.2005 02:00 0.2 C 97 % 1022.7 hPa 1.6 l/m 0.0 km/h (0 Bft) N 0.00 h 0 W/m -0.3 C 0.2 C
09.12.2005 03:00 0.1 C 97 % 1023.7 hPa 0.6 l/m 0.0 km/h (0 Bft) N 0.00 h 0 W/m -0.3 C 0.1 C
09.12.2005 04:00 0.1 C 97 % 1023.8 hPa 0.6 l/m 0.0 km/h (0 Bft) N 0.00 h 0 W/m -0.2 C 0.1 C
09.12.2005 05:00 0.1 C 98 % 1024.7 hPa 0.3 l/m 0.0 km/h (0 Bft) N 0.00 h 0 W/m -0.1 C 0.1 C
09.12.2005 06:00 0.3 C 98 % 1026.2 hPa 0.0 l/m 0.0 km/h (0 Bft) N 0.00 h 0 W/m 0.1 C 0.3 C
09.12.2005 07:00 0.5 C 98 % 1027.5 hPa 0.0 l/m 0.0 km/h (0 Bft) N 0.00 h 0 W/m 0.2 C 0.5 C
09.12.2005 08:00 0.7 C 98 % 1028.5 hPa 0.0 l/m 0.0 km/h (0 Bft) N 0.00 h 5 W/m 0.5 C 0.7 C
09.12.2005 09:00 1.2 C 98 % 1030.0 hPa 0.0 l/m 0.0 km/h (0 Bft) N 0.00 h 26 W/m 0.9 C 1.2 C
09.12.2005 10:00 1.8 C 97 % 1031.2 hPa 0.0 l/m 0.0 km/h (0 Bft) N 0.00 h 59 W/m 1.3 C 1.8 C
09.12.2005 11:00 2.7 C 91 % 1031.7 hPa 0.0 l/m 0.3 km/h (0 Bft) O 0.03 h 130 W/m 1.3 C 2.7 C
09.12.2005 12:00 3.5 C 84 % 1031.6 hPa 0.0 l/m 0.1 km/h (0 Bft) N 0.00 h 120 W/m 1.0 C 3.5 C
09.12.2005 13:00 3.9 C 80 % 1032.3 hPa 0.0 l/m 2.1 km/h (1 Bft) O-NO 0.60 h 255 W/m 0.7 C 3.5 C
09.12.2005 14:00 4.1 C 68 % 1032.5 hPa 0.0 l/m 3.1 km/h (1 Bft) NO 0.27 h 135 W/m -1.1 C 3.5 C
09.12.2005 15:00 3.7 C 69 % 1032.6 hPa 0.0 l/m 3.3 km/h (1 Bft) N-NO 0.13 h 62 W/m -1.4 C 3.2 C
09.12.2005 16:00 3.5 C 70 % 1033.7 hPa 0.0 l/m 2.5 km/h (1 Bft) NO 0.00 h 15 W/m -1.5 C 3.0 C
09.12.2005 17:00 2.2 C 71 % 1034.7 hPa 0.0 l/m 1.4 km/h (1 Bft) O 0.00 h 0 W/m -2.5 C 2.0 C
09.12.2005 18:00 0.9 C 76 % 1035.1 hPa 0.0 l/m 1.3 km/h (1 Bft) O 0.00 h 0 W/m -2.8 C 0.8 C
09.12.2005 19:00 -0.2 C 82 % 1036.0 hPa 0.0 l/m 0.2 km/h (0 Bft) O 0.00 h 0 W/m -2.9 C -0.2 C
09.12.2005 20:00 0.5 C 79 % 1036.2 hPa 0.0 l/m 0.9 km/h (0 Bft) O-SO 0.00 h 0 W/m -2.7 C 0.4 C
09.12.2005 21:00 1.1 C 75 % 1036.6 hPa 0.0 l/m 0.3 km/h (0 Bft) N-NO 0.00 h 0 W/m -2.9 C 1.0 C
09.12.2005 22:00 1.3 C 75 % 1037.1 hPa 0.0 l/m 0.2 km/h (0 Bft) N-NO 0.00 h 0 W/m -2.7 C 1.3 C
09.12.2005 23:00 1.6 C 74 % 1036.8 hPa 0.0 l/m 0.5 km/h (0 Bft) O 0.00 h 0 W/m -2.6 C 1.5 C
10.12.2005 00:00 1.8 C 73 % 1036.0 hPa 0.0 l/m 0.5 km/h (0 Bft) O-NO 0.00 h 0 W/m -2.5 C 1.8 C
10.12.2005 01:00 2.1 C 70 % 1036.0 hPa 0.0 l/m 1.1 km/h (1 Bft) O-NO 0.00 h 0 W/m -2.8 C 1.8 C
10.12.2005 02:00 2.1 C 68 % 1036.8 hPa 0.0 l/m 1.2 km/h (1 Bft) NO 0.00 h 0 W/m -3.3 C 2.0 C
10.12.2005 03:00 2.1 C 66 % 1037.0 hPa 0.0 l/m 1.7 km/h (1 Bft) NO 0.00 h 0 W/m -3.6 C 1.7 C
10.12.2005 04:00 2.0 C 65 % 1037.0 hPa 0.0 l/m 1.3 km/h (1 Bft) NO 0.00 h 0 W/m -3.9 C 1.7 C
10.12.2005 05:00 1.3 C 67 % 1036.5 hPa 0.0 l/m 0.1 km/h (0 Bft) NO 0.00 h 0 W/m -4.2 C 1.3 C
10.12.2005 06:00 0.9 C 69 % 1037.2 hPa 0.0 l/m 0.4 km/h (0 Bft) N-NO 0.00 h 0 W/m -4.2 C 0.9 C
10.12.2005 07:00 0.7 C 69 % 1037.2 hPa 0.0 l/m 1.7 km/h (1 Bft) O-SO 0.00 h 0 W/m -4.3 C 0.2 C
10.12.2005 08:00 0.7 C 69 % 1037.2 hPa 0.0 l/m 0.2 km/h (0 Bft) O 0.00 h 17 W/m -4.3 C 0.7 C
10.12.2005 09:00 1.0 C 67 % 1037.3 hPa 0.0 l/m 0.1 km/h (0 Bft) O 0.00 h 38 W/m -4.5 C 1.0 C
10.12.2005 10:00 1.6 C 65 % 1038.1 hPa 0.0 l/m 2.9 km/h (1 Bft) NO 0.00 h 82 W/m -4.2 C 0.9 C
10.12.2005 11:00 1.7 C 63 % 1038.1 hPa 0.0 l/m 3.7 km/h (1 Bft) N-NO 0.00 h 77 W/m -4.5 C 0.9 C
10.12.2005 12:00 1.9 C 62 % 1037.1 hPa 0.0 l/m 1.5 km/h (1 Bft) O-SO 0.00 h 103 W/m -4.7 C 1.7 C
10.12.2005 13:00 2.1 C 60 % 1037.0 hPa 0.0 l/m 4.0 km/h (1 Bft) O 0.07 h 125 W/m -4.8 C 1.2 C
10.12.2005 14:00 2.1 C 58 % 1037.0 hPa 0.0 l/m 5.2 km/h (1 Bft) O 0.00 h 103 W/m -5.2 C 0.8 C
10.12.2005 15:00 1.9 C 60 % 1037.0 hPa 0.0 l/m 4.8 km/h (1 Bft) O 0.00 h 55 W/m -5.2 C 0.6 C
10.12.2005 16:00 1.7 C 60 % 1037.1 hPa 0.0 l/m 1.9 km/h (1 Bft) NO 0.00 h 11 W/m -5.1 C 1.5 C
10.12.2005 17:00 0.9 C 63 % 1038.1 hPa 0.0 l/m 0.7 km/h (0 Bft) N-NO 0.00 h 0 W/m -5.3 C 0.8 C
10.12.2005 18:00 0.5 C 70 % 1038.3 hPa 0.0 l/m 0.8 km/h (0 Bft) SO 0.00 h 0 W/m -4.3 C 0.4 C
10.12.2005 19:00 0.5 C 67 % 1038.8 hPa 0.0 l/m 0.5 km/h (0 Bft) SW 0.00 h 0 W/m -4.9 C 0.4 C
10.12.2005 20:00 0.8 C 64 % 1039.3 hPa 0.0 l/m 2.0 km/h (1 Bft) O 0.00 h 0 W/m -5.3 C 0.4 C
10.12.2005 21:00 0.5 C 62 % 1039.3 hPa 0.0 l/m 4.1 km/h (1 Bft) NO 0.00 h 0 W/m -5.9 C -0.6 C
10.12.2005 22:00 0.1 C 62 % 1038.7 hPa 0.0 l/m 3.3 km/h (1 Bft) NO 0.00 h 0 W/m -6.3 C -0.6 C
10.12.2005 23:00 -0.2 C 63 % 1038.4 hPa 0.0 l/m 0.9 km/h (0 Bft) O-NO 0.00 h 0 W/m -6.3 C -0.3 C
11.12.2005 00:00 -0.4 C 64 % 1038.4 hPa 0.0 l/m 0.2 km/h (0 Bft) N 0.00 h 0 W/m -6.3 C -0.4 C
11.12.2005 01:00 -0.7 C 65 % 1038.3 hPa 0.0 l/m 0.0 km/h (0 Bft) N 0.00 h 0 W/m -6.5 C -0.7 C
11.12.2005 02:00 -0.9 C 65 % 1038.5 hPa 0.0 l/m 0.2 km/h (0 Bft) N 0.00 h 0 W/m -6.5 C -0.9 C
11.12.2005 03:00 -1.2 C 65 % 1037.6 hPa 0.0 l/m 0.1 km/h (0 Bft) NO 0.00 h 0 W/m -6.8 C -1.2 C
11.12.2005 04:00 -1.4 C 65 % 1037.5 hPa 0.0 l/m 1.4 km/h (1 Bft) O 0.00 h 0 W/m -7.1 C -1.7 C
11.12.2005 05:00 -1.5 C 66 % 1037.5 hPa 0.0 l/m 0.2 km/h (0 Bft) N 0.00 h 0 W/m -7.1 C -1.5 C
11.12.2005 06:00 -1.6 C 66 % 1037.6 hPa 0.0 l/m 2.7 km/h (1 Bft) O-SO 0.00 h 0 W/m -7.0 C -2.4 C
11.12.2005 07:00 -1.7 C 68 % 1037.6 hPa 0.0 l/m 3.3 km/h (1 Bft) O-SO 0.00 h 0 W/m -6.8 C -2.7 C
11.12.2005 08:00 -1.7 C 68 % 1037.6 hPa 0.0 l/m 9.3 km/h (2 Bft) O-SO 0.00 h 15 W/m -6.9 C -4.7 C
11.12.2005 09:00 -1.6 C 67 % 1038.2 hPa 0.0 l/m 8.3 km/h (2 Bft) O 0.00 h 44 W/m -6.8 C -4.2 C
11.12.2005 10:00 -1.3 C 66 % 1037.6 hPa 0.0 l/m 7.2 km/h (2 Bft) O-SO 0.00 h 91 W/m -6.8 C -3.7 C
11.12.2005 11:00 -1.0 C 65 % 1037.0 hPa 0.0 l/m 7.5 km/h (2 Bft) O-SO 0.17 h 162 W/m -6.7 C -3.2 C
11.12.2005 12:00 0.1 C 62 % 1036.1 hPa 0.0 l/m 18.9 km/h (3 Bft) O-SO 1.00 h 336 W/m -6.3 C -4.8 C
11.12.2005 13:00 0.9 C 59 % 1034.9 hPa 0.0 l/m 17.9 km/h (3 Bft) O-SO 1.00 h 319 W/m -6.1 C -3.7 C
11.12.2005 14:00 1.8 C 53 % 1033.9 hPa 0.0 l/m 13.2 km/h (3 Bft) O-SO 1.00 h 252 W/m -6.7 C -1.7 C
11.12.2005 15:00 1.7 C 50 % 1033.9 hPa 0.0 l/m 9.1 km/h (2 Bft) O-SO 1.00 h 137 W/m -7.4 C -0.6 C
11.12.2005 16:00 0.4 C 54 % 1033.1 hPa 0.0 l/m 5.3 km/h (1 Bft) O-SO 0.23 h 24 W/m -7.8 C -1.1 C
11.12.2005 17:00 -0.3 C 55 % 1033.7 hPa 0.0 l/m 1.2 km/h (1 Bft) O-SO 0.00 h 0 W/m -8.1 C -0.5 C
11.12.2005 18:00 -0.2 C 57 % 1033.2 hPa 0.0 l/m 3.3 km/h (1 Bft) O-SO 0.00 h 0 W/m -7.7 C -1.2 C
11.12.2005 19:00 -0.9 C 58 % 1033.3 hPa 0.0 l/m 1.9 km/h (1 Bft) O 0.00 h 0 W/m -8.2 C -1.2 C
11.12.2005 20:00 -0.8 C 54 % 1032.6 hPa 0.0 l/m 3.8 km/h (1 Bft) O-SO 0.00 h 0 W/m -8.9 C -1.9 C
11.12.2005 21:00 -2.0 C 59 % 1032.4 hPa 0.0 l/m 3.3 km/h (1 Bft) O-SO 0.00 h 0 W/m -8.8 C -3.1 C
11.12.2005 22:00 -2.4 C 64 % 1032.5 hPa 0.0 l/m 1.9 km/h (1 Bft) O-SO 0.00 h 0 W/m -8.4 C -3.1 C
11.12.2005 23:00 -3.2 C 66 % 1032.6 hPa 0.0 l/m 2.2 km/h (1 Bft) O-SO 0.00 h 0 W/m -8.5 C -4.0 C
Min-Datum _ 11.12.05 11.12.05 05.12.05 - 05.12.05 - - - 11.12.05 11.12.05
_ Min-Zeit 23:26 15:10 03:18 - 04:06 - - - 21:16 08:56
Minimum _ -3.5 C 50 % 1000.9 hPa - 0.0 km/h (0 Bft) - - - -9.3 C -7.6 C
Max-Datum _ 05.12.05 09.12.05 10.12.05 08.12.05 11.12.05 - 06.12.05 06.12.05 05.12.05 05.12.05
_ Max-Zeit 13:04 04:45 22:20 22:11 13:26 - 12:24 12:26 08:52 13:04
Maximum _ 7.9 C 98 % 1039.4 hPa 2.0 l/m 29.2 km/h
O-SO (5 Bft)
- 0.05 h 416 W/m 4.2 C 7.9 C
Durchschnitt _ 2.0 C 80 % 1021.6 hPa #16.9 l/m 2.2 km/h (1 Bft) O-SO #8:24 h 84 W/m -1.3 C 1.5 C
© Kaiko 2005